createdAt,value
2018-02-06T00:00:30.339Z,808.42
2018-02-06T00:01:30.336Z,808.41
2018-02-06T00:02:30.338Z,808.35
2018-02-06T00:03:30.342Z,808.31
2018-02-06T00:04:30.349Z,808.29
2018-02-06T00:05:30.350Z,808.30
2018-02-06T00:06:30.356Z,808.30
2018-02-06T00:07:30.362Z,808.33
2018-02-06T00:08:30.359Z,808.33
2018-02-06T00:09:30.366Z,808.33
2018-02-06T00:10:30.370Z,808.28
2018-02-06T00:11:30.368Z,808.26
2018-02-06T00:12:30.371Z,808.21
2018-02-06T00:13:30.380Z,808.20
2018-02-06T00:14:30.376Z,808.16
2018-02-06T00:15:30.386Z,808.15
2018-02-06T00:16:30.389Z,808.19
2018-02-06T00:17:30.386Z,808.20
2018-02-06T00:18:30.393Z,808.18
2018-02-06T00:19:30.398Z,808.21
2018-02-06T00:20:30.437Z,808.17
2018-02-06T00:21:30.405Z,808.18
2018-02-06T00:22:30.402Z,808.18
2018-02-06T00:23:30.405Z,808.16
2018-02-06T00:24:30.407Z,808.12
2018-02-06T00:25:30.417Z,808.14
2018-02-06T00:26:30.419Z,808.11
2018-02-06T00:27:30.422Z,808.07
2018-02-06T00:28:30.424Z,808.08
2018-02-06T00:29:30.428Z,808.07
2018-02-06T00:30:30.424Z,808.04
2018-02-06T00:31:30.428Z,807.99
2018-02-06T00:32:30.432Z,807.99
2018-02-06T00:33:30.434Z,808.00
2018-02-06T00:34:30.437Z,807.99
2018-02-06T00:35:30.439Z,808.00
2018-02-06T00:36:30.452Z,807.99
2018-02-06T00:37:30.446Z,807.96
2018-02-06T00:38:30.453Z,807.98
2018-02-06T00:39:30.452Z,807.98
2018-02-06T00:40:30.460Z,807.97
2018-02-06T00:41:30.458Z,807.97
2018-02-06T00:42:30.466Z,807.96
2018-02-06T00:43:30.470Z,807.91
2018-02-06T00:44:30.466Z,807.92
2018-02-06T00:45:30.476Z,807.92
2018-02-06T00:46:30.473Z,807.91
2018-02-06T00:47:30.482Z,807.89
2018-02-06T00:48:30.479Z,807.87
2018-02-06T00:49:30.488Z,807.82
2018-02-06T00:50:30.484Z,807.83
2018-02-06T00:51:30.494Z,807.83
2018-02-06T00:52:30.555Z,807.83
2018-02-06T00:53:30.494Z,807.83
2018-02-06T00:54:30.497Z,807.87
2018-02-06T00:55:30.507Z,807.81
2018-02-06T00:56:30.506Z,807.80
2018-02-06T00:57:30.511Z,807.75
2018-02-06T00:58:30.513Z,807.76
2018-02-06T00:59:30.516Z,807.71
2018-02-06T01:00:30.513Z,807.78
2018-02-06T01:01:30.521Z,807.74
2018-02-06T01:02:30.530Z,807.76
2018-02-06T01:03:30.528Z,807.71
2018-02-06T01:04:30.532Z,807.74
2018-02-06T01:05:30.538Z,807.68
2018-02-06T01:06:30.541Z,807.68
2018-02-06T01:07:30.538Z,807.65
2018-02-06T01:08:30.538Z,807.63
2018-02-06T01:09:30.545Z,807.70
2018-02-06T01:10:30.542Z,807.68
2018-02-06T01:11:30.551Z,807.74
2018-02-06T01:12:30.548Z,807.65
2018-02-06T01:13:30.551Z,807.73
2018-02-06T01:14:30.560Z,807.69
2018-02-06T01:15:30.563Z,807.65
2018-02-06T01:16:30.561Z,807.65
2018-02-06T01:17:30.562Z,807.65
2018-02-06T01:18:30.570Z,807.61
2018-02-06T01:19:30.568Z,807.65
2018-02-06T01:20:30.575Z,807.59
2018-02-06T01:21:30.580Z,807.60
2018-02-06T01:22:30.580Z,807.60
2018-02-06T01:23:30.578Z,807.57
2018-02-06T01:24:30.588Z,807.62
2018-02-06T01:25:30.584Z,807.57
2018-02-06T01:26:30.586Z,807.59
2018-02-06T01:27:30.594Z,807.55
2018-02-06T01:28:30.592Z,807.52
2018-02-06T01:29:30.601Z,807.54
2018-02-06T01:30:30.595Z,807.50
2018-02-06T01:31:30.605Z,807.49
2018-02-06T01:32:30.608Z,807.52
2018-02-06T01:33:30.605Z,807.54
2018-02-06T01:34:30.614Z,807.54
2018-02-06T01:35:30.610Z,807.57
2018-02-06T01:36:30.616Z,807.55
2018-02-06T01:37:30.616Z,807.52
2018-02-06T01:38:30.619Z,807.54
2018-02-06T01:39:30.622Z,807.53
2018-02-06T01:40:30.624Z,807.46
2018-02-06T01:41:30.632Z,807.47
2018-02-06T01:42:30.629Z,807.44
2018-02-06T01:43:30.632Z,807.45
2018-02-06T01:44:30.634Z,807.39
2018-02-06T01:45:30.642Z,807.43
2018-02-06T01:46:30.645Z,807.40
2018-02-06T01:47:30.643Z,807.40
2018-02-06T01:48:30.645Z,807.39
2018-02-06T01:49:30.656Z,807.36
2018-02-06T01:50:30.650Z,807.41
2018-02-06T01:51:30.661Z,807.32
2018-02-06T01:52:30.655Z,807.37
2018-02-06T01:53:30.664Z,807.35
2018-02-06T01:54:30.666Z,807.35
2018-02-06T01:55:30.669Z,807.34
2018-02-06T01:56:30.674Z,807.39
2018-02-06T01:57:30.678Z,807.40
2018-02-06T01:58:30.672Z,807.46
2018-02-06T01:59:30.677Z,807.42
2018-02-06T02:00:30.682Z,807.42
2018-02-06T02:01:30.687Z,807.39
2018-02-06T02:02:30.688Z,807.41
2018-02-06T02:03:30.690Z,807.37
2018-02-06T02:04:30.687Z,807.37
2018-02-06T02:05:30.693Z,807.36
2018-02-06T02:06:30.700Z,807.29
2018-02-06T02:07:30.701Z,807.25
2018-02-06T02:08:30.705Z,807.20
2018-02-06T02:09:30.701Z,807.22
2018-02-06T02:10:30.704Z,807.23
2018-02-06T02:11:30.713Z,807.20
2018-02-06T02:12:30.714Z,807.21
2018-02-06T02:13:30.713Z,807.21
2018-02-06T02:14:30.720Z,807.20
2018-02-06T02:15:30.718Z,807.21
2018-02-06T02:16:30.728Z,807.17
2018-02-06T02:17:30.729Z,807.19
2018-02-06T02:18:30.725Z,807.15
2018-02-06T02:19:30.735Z,807.13
2018-02-06T02:20:30.737Z,807.12
2018-02-06T02:21:30.740Z,807.06
2018-02-06T02:22:30.741Z,807.10
2018-02-06T02:23:30.745Z,807.08
2018-02-06T02:24:30.747Z,807.05
2018-02-06T02:25:30.751Z,807.12
2018-02-06T02:26:30.753Z,807.08
2018-02-06T02:27:30.751Z,807.05
2018-02-06T02:28:30.751Z,807.04
2018-02-06T02:29:30.761Z,807.03
2018-02-06T02:30:30.763Z,807.01
2018-02-06T02:31:30.766Z,807.04
2018-02-06T02:32:30.763Z,807.02
2018-02-06T02:33:30.771Z,807.02
2018-02-06T02:34:30.773Z,806.98
2018-02-06T02:35:30.788Z,806.99
2018-02-06T02:36:30.778Z,807.03
2018-02-06T02:37:30.777Z,807.04
2018-02-06T02:38:30.778Z,807.03
2018-02-06T02:39:30.788Z,807.00
2018-02-06T02:40:30.786Z,806.97
2018-02-06T02:41:30.794Z,806.96
2018-02-06T04:38:31.101Z,806.50
2018-02-06T04:39:31.106Z,806.50
2018-02-06T04:40:31.112Z,806.49
2018-02-06T04:41:31.108Z,806.48
2018-02-06T04:42:31.121Z,806.51
2018-02-06T04:43:31.114Z,806.50
2018-02-06T04:44:31.129Z,806.54
2018-02-06T04:45:31.128Z,806.45
2018-02-06T04:46:31.122Z,806.50
2018-02-06T04:47:31.130Z,806.47
2018-02-06T04:48:31.130Z,806.43
2018-02-06T04:49:31.136Z,806.47
2018-02-06T04:50:31.131Z,806.43
2018-02-06T04:51:31.141Z,806.41
2018-02-06T04:52:31.137Z,806.44
2018-02-06T04:53:31.143Z,806.44
2018-02-06T04:54:31.147Z,806.43
2018-02-06T04:55:31.149Z,806.44
2018-02-06T04:56:31.152Z,806.42
2018-02-06T04:57:31.153Z,806.45
2018-02-06T04:58:31.156Z,806.43
2018-02-06T04:59:31.161Z,806.37
2018-02-06T05:00:31.164Z,806.34
2018-02-06T05:01:31.166Z,806.35
2018-02-06T05:02:31.173Z,806.37
2018-02-06T05:03:31.166Z,806.36
2018-02-06T05:04:31.168Z,806.43
2018-02-06T05:05:31.176Z,806.37
2018-02-06T05:06:31.172Z,806.34
2018-02-06T05:07:31.175Z,806.32
2018-02-06T05:08:31.179Z,806.33
2018-02-06T05:09:31.182Z,806.35
2018-02-06T05:10:31.187Z,806.33
2018-02-06T05:11:31.191Z,806.33
2018-02-06T05:12:31.195Z,806.30
2018-02-06T05:13:31.196Z,806.28
2018-02-06T05:14:31.201Z,806.28
2018-02-06T05:15:31.197Z,806.31
2018-02-06T05:16:31.206Z,806.31
2018-02-06T05:17:31.202Z,806.29
2018-02-06T05:18:31.209Z,806.33
2018-02-06T05:19:31.208Z,806.24
2018-02-06T05:20:31.210Z,806.26
2018-02-06T05:21:31.220Z,806.24
2018-02-06T05:22:31.220Z,806.26
2018-02-06T05:23:31.223Z,806.24
2018-02-06T05:24:31.226Z,806.28
2018-02-06T05:25:31.229Z,806.27
2018-02-06T05:26:31.227Z,806.23
2018-02-06T05:27:31.234Z,806.27
2018-02-06T05:28:31.231Z,806.25
2018-02-06T05:29:31.239Z,806.23
2018-02-06T05:30:31.243Z,806.22
2018-02-06T05:31:31.238Z,806.21
2018-02-06T05:32:31.247Z,806.22
2018-02-06T05:33:31.250Z,806.19
2018-02-06T05:34:31.253Z,806.16
2018-02-06T05:35:31.255Z,806.18
2018-02-06T05:36:31.258Z,806.16
2018-02-06T05:37:31.255Z,806.13
2018-02-06T05:38:31.258Z,806.15
2018-02-06T05:39:31.265Z,806.15
2018-02-06T05:40:31.269Z,806.17
2018-02-06T05:41:31.272Z,806.12
2018-02-06T05:42:31.270Z,806.13
2018-02-06T05:43:31.278Z,806.15
2018-02-06T05:44:31.274Z,806.17
2018-02-06T05:45:31.285Z,806.17
2018-02-06T05:46:31.284Z,806.16
2018-02-06T05:47:31.283Z,806.16
2018-02-06T05:48:31.291Z,806.14
2018-02-06T05:49:31.293Z,806.16
2018-02-06T05:50:31.297Z,806.14
2018-02-06T05:51:31.293Z,806.16
2018-02-06T05:52:31.302Z,806.15
2018-02-06T05:53:31.301Z,806.10
2018-02-06T05:54:31.302Z,806.14
2018-02-06T05:55:31.306Z,806.11
2018-02-06T05:56:31.308Z,806.18
2018-02-06T05:57:31.312Z,806.16
2018-02-06T05:58:31.314Z,806.13
2018-02-06T05:59:31.321Z,806.13
2018-02-06T06:00:31.325Z,806.10
2018-02-06T06:01:31.328Z,806.12
2018-02-06T06:02:31.325Z,806.07
2018-02-06T06:03:31.334Z,806.11
2018-02-06T06:04:31.336Z,806.04
2018-02-06T06:05:31.340Z,806.05
2018-02-06T06:06:31.342Z,806.08
2018-02-06T06:07:31.339Z,806.09
2018-02-06T06:08:31.343Z,806.14
2018-02-06T06:09:31.352Z,806.07
2018-02-06T06:10:31.354Z,806.08
2018-02-06T06:11:31.351Z,806.11
2018-02-06T06:12:31.354Z,806.11
2018-02-06T06:13:31.362Z,806.13
2018-02-06T06:14:31.359Z,806.11
2018-02-06T06:15:31.368Z,806.09
2018-02-06T06:16:31.419Z,806.10
2018-02-06T06:17:31.368Z,806.03
2018-02-06T06:18:31.377Z,806.10
2018-02-06T06:19:31.375Z,806.09
2018-02-06T06:20:31.382Z,806.07
2018-02-06T06:21:31.381Z,806.04
2018-02-06T06:22:31.387Z,806.06
2018-02-06T06:23:31.384Z,806.03
2018-02-06T06:24:31.388Z,806.03
2018-02-06T06:25:31.391Z,806.04
2018-02-06T06:26:31.393Z,806.02
2018-02-06T06:27:31.402Z,805.99
2018-02-06T06:28:31.402Z,806.03
2018-02-06T06:29:31.411Z,806.04
2018-02-06T06:30:31.405Z,806.04
2018-02-06T06:31:31.413Z,806.07
2018-02-06T06:32:31.411Z,806.06
2018-02-06T06:33:31.414Z,806.05
2018-02-06T06:34:31.415Z,806.03
2018-02-06T06:35:31.424Z,806.03
2018-02-06T06:36:31.427Z,806.00
2018-02-06T06:37:31.432Z,805.95
2018-02-06T06:38:31.429Z,805.98
2018-02-06T06:39:31.432Z,805.98
2018-02-06T06:40:31.434Z,805.95
2018-02-06T06:41:31.449Z,806.01
2018-02-06T06:42:31.443Z,805.97
2018-02-06T06:43:31.448Z,805.96
2018-02-06T06:44:31.445Z,806.01
2018-02-06T06:45:31.451Z,805.95
2018-02-06T06:46:31.454Z,805.96
2018-02-06T06:47:31.460Z,805.92
2018-02-06T06:48:31.460Z,805.94
2018-02-06T06:49:31.460Z,805.95
2018-02-06T06:50:31.462Z,805.97
2018-02-06T06:51:31.469Z,805.94
2018-02-06T06:52:31.468Z,805.91
2018-02-06T06:53:31.474Z,805.91
2018-02-06T06:54:31.474Z,805.93
2018-02-06T06:55:31.475Z,805.89
2018-02-06T06:56:31.479Z,805.83
2018-02-06T06:57:31.486Z,805.86
2018-02-06T06:58:31.482Z,805.86
2018-02-06T06:59:31.493Z,805.86
2018-02-06T07:00:31.488Z,805.89
2018-02-06T07:01:31.492Z,805.89
2018-02-06T07:02:31.494Z,805.88
2018-02-06T07:03:31.501Z,805.91
2018-02-06T07:04:31.502Z,805.88
2018-02-06T07:05:31.507Z,805.86
2018-02-06T07:06:31.503Z,805.85
2018-02-06T07:07:31.514Z,805.83
2018-02-06T07:08:31.510Z,805.78
2018-02-06T07:09:31.513Z,805.78
2018-02-06T07:10:31.513Z,805.82
2018-02-06T07:11:31.517Z,805.79
2018-02-06T07:12:31.526Z,805.81
2018-02-06T07:13:31.526Z,805.79
2018-02-06T07:14:31.523Z,805.79
2018-02-06T07:15:31.527Z,805.78
2018-02-06T07:16:31.530Z,805.78
2018-02-06T07:17:31.537Z,805.80
2018-02-06T07:18:31.541Z,805.76
2018-02-06T07:19:31.543Z,805.74
2018-02-06T07:20:31.544Z,805.71
2018-02-06T07:21:31.547Z,805.77
2018-02-06T07:22:31.549Z,805.69
2018-02-06T07:23:31.548Z,805.73
2018-02-06T07:24:31.554Z,805.70
2018-02-06T07:25:31.555Z,805.73
2018-02-06T07:26:31.556Z,805.67
2018-02-06T07:27:31.557Z,805.69
2018-02-06T07:28:31.561Z,805.66
2018-02-06T07:29:31.569Z,805.66
2018-02-06T07:30:31.565Z,805.63
2018-02-06T07:31:31.574Z,805.69
2018-02-06T07:32:31.580Z,805.68
2018-02-06T07:33:31.573Z,805.70
2018-02-06T07:34:31.577Z,805.68
2018-02-06T07:35:31.583Z,805.69
2018-02-06T07:36:31.582Z,805.68
2018-02-06T07:37:31.584Z,805.63
2018-02-06T07:38:31.589Z,805.60
2018-02-06T07:39:31.594Z,805.69
2018-02-06T07:40:31.598Z,805.69
2018-02-06T07:41:31.595Z,805.68
2018-02-06T07:42:31.605Z,805.72
2018-02-06T07:43:31.604Z,805.72
2018-02-06T07:44:31.609Z,805.71
2018-02-06T07:45:31.604Z,805.77
2018-02-06T07:46:31.607Z,805.71
2018-02-06T07:47:31.609Z,805.71
2018-02-06T07:48:31.612Z,805.72
2018-02-06T07:49:31.620Z,805.74
2018-02-06T07:50:31.617Z,805.77
2018-02-06T07:51:31.619Z,805.73
2018-02-06T07:52:31.627Z,805.71
2018-02-06T07:53:31.630Z,805.71
2018-02-06T07:54:31.627Z,805.73
2018-02-06T07:55:31.629Z,805.72
2018-02-06T07:56:31.637Z,805.73
2018-02-06T07:57:31.641Z,805.73
2018-02-06T07:58:31.644Z,805.71
2018-02-06T07:59:31.647Z,805.72
2018-02-06T08:00:31.650Z,805.68
2018-02-06T08:01:31.646Z,805.63
2018-02-06T08:02:31.652Z,805.67
2018-02-06T08:03:31.654Z,805.71
2018-02-06T08:04:31.654Z,805.69
2018-02-06T08:05:31.661Z,805.63
2018-02-06T08:06:31.682Z,805.67
2018-02-06T08:07:31.668Z,805.64
2018-02-06T08:08:31.664Z,805.64
2018-02-06T08:09:31.673Z,805.68
2018-02-06T08:10:31.674Z,805.64
2018-02-06T08:11:31.673Z,805.61
2018-02-06T08:12:31.675Z,805.61
2018-02-06T08:13:31.677Z,805.65
2018-02-06T08:14:31.686Z,805.62
2018-02-06T08:15:31.682Z,805.63
2018-02-06T08:16:31.685Z,805.67
2018-02-06T08:17:31.694Z,805.63
2018-02-06T08:18:31.691Z,805.60
2018-02-06T08:19:31.700Z,805.64
2018-02-06T08:20:31.699Z,805.64
2018-02-06T08:21:31.705Z,805.60
2018-02-06T08:22:31.710Z,805.67
2018-02-06T08:23:31.704Z,805.65
2018-02-06T08:24:31.712Z,805.66
2018-02-06T08:25:31.717Z,805.70
2018-02-06T08:26:31.719Z,805.68
2018-02-06T08:27:31.721Z,805.68
2018-02-06T08:28:31.719Z,805.69
2018-02-06T08:29:31.730Z,805.63
2018-02-06T08:30:31.732Z,805.59
2018-02-06T08:31:31.729Z,805.60
2018-02-06T08:32:31.738Z,805.59
2018-02-06T08:33:31.739Z,805.61
2018-02-06T08:34:31.745Z,805.63
2018-02-06T08:35:31.743Z,805.64
2018-02-06T08:36:31.751Z,805.62
2018-02-06T08:37:31.749Z,805.64
2018-02-06T08:38:31.753Z,805.63
2018-02-06T08:39:31.762Z,805.64
2018-02-06T08:40:31.759Z,805.65
2018-02-06T08:41:31.764Z,805.62
2018-02-06T08:42:31.773Z,805.65
2018-02-06T08:43:31.777Z,805.65
2018-02-06T08:44:31.780Z,805.66
2018-02-06T08:45:31.778Z,805.64
2018-02-06T08:46:31.789Z,805.70
2018-02-06T08:47:31.786Z,805.64
2018-02-06T08:48:31.792Z,805.67
2018-02-06T08:49:31.800Z,805.65
2018-02-06T08:50:31.805Z,805.62
2018-02-06T08:51:31.808Z,805.62
2018-02-06T08:52:31.807Z,805.62
2018-02-06T08:53:31.818Z,805.61
2018-02-06T08:54:31.820Z,805.63
2018-02-06T08:55:31.827Z,805.59
2018-02-06T08:56:31.824Z,805.60
2018-02-06T08:57:31.834Z,805.56
2018-02-06T08:58:31.833Z,805.60
2018-02-06T08:59:31.838Z,805.63
2018-02-06T09:00:31.848Z,805.61
2018-02-06T09:01:31.851Z,805.64
2018-02-06T09:02:31.856Z,805.64
2018-02-06T09:03:31.857Z,805.62
2018-02-06T09:04:31.866Z,805.64
2018-02-06T09:05:31.864Z,805.65
2018-02-06T09:06:31.874Z,805.62
2018-02-06T09:07:31.879Z,805.61
2018-02-06T09:08:31.878Z,805.61
2018-02-06T09:09:31.888Z,805.62
2018-02-06T09:10:31.892Z,805.66
2018-02-06T09:11:31.891Z,805.65
2018-02-06T09:12:31.901Z,805.61
2018-02-06T09:13:31.908Z,805.63
2018-02-06T09:14:31.910Z,805.61
2018-02-06T09:15:31.916Z,805.64
2018-02-06T09:16:31.922Z,805.63
2018-02-06T09:17:31.920Z,805.61
2018-02-06T09:18:32.082Z,805.62
2018-02-06T09:19:31.935Z,805.66
2018-02-06T09:20:31.940Z,805.60
2018-02-06T09:21:31.940Z,805.60
2018-02-06T09:22:31.945Z,805.60
2018-02-06T09:23:31.957Z,805.58
2018-02-06T09:24:31.964Z,805.61
2018-02-06T09:25:31.961Z,805.61
2018-02-06T09:26:31.965Z,805.60
2018-02-06T09:27:31.971Z,805.58
2018-02-06T09:28:31.983Z,805.59
2018-02-06T09:29:31.983Z,805.56
2018-02-06T09:30:31.988Z,805.54
2018-02-06T09:31:31.992Z,805.58
2018-02-06T09:32:32.000Z,805.59
2018-02-06T09:33:32.011Z,805.58
2018-02-06T09:34:32.018Z,805.57
2018-02-06T09:35:32.022Z,805.56
2018-02-06T09:36:32.027Z,805.58
2018-02-06T09:37:32.034Z,805.57
2018-02-06T09:38:32.031Z,805.58
2018-02-06T09:39:32.046Z,805.55
2018-02-06T09:40:32.053Z,805.56
2018-02-06T09:41:32.051Z,805.56
2018-02-06T09:42:32.055Z,805.53
2018-02-06T09:43:32.066Z,805.57
2018-02-06T09:44:32.067Z,805.55
2018-02-06T09:45:32.093Z,805.55
2018-02-06T09:46:32.078Z,805.56
2018-02-06T09:47:32.084Z,805.56
2018-02-06T09:48:32.095Z,805.58
2018-02-06T09:49:32.097Z,805.54
2018-02-06T09:50:32.101Z,805.53
2018-02-06T09:51:32.112Z,805.57
2018-02-06T09:52:32.113Z,805.59
2018-02-06T09:53:32.119Z,805.58
2018-02-06T09:54:32.130Z,805.53
2018-02-06T09:55:32.131Z,805.54
2018-02-06T09:56:32.138Z,805.56
2018-02-06T09:57:32.148Z,805.54
2018-02-06T09:58:32.158Z,805.52
2018-02-06T09:59:32.155Z,805.56
2018-02-06T10:00:32.170Z,805.59
2018-02-06T10:01:32.168Z,805.56
2018-02-06T10:02:32.178Z,805.54
2018-02-06T10:03:32.179Z,805.58
2018-02-06T10:04:32.193Z,805.60
2018-02-06T10:05:32.199Z,805.56
2018-02-06T10:06:32.199Z,805.58
2018-02-06T10:07:32.205Z,805.58
2018-02-06T10:08:32.219Z,805.57
2018-02-06T10:09:32.219Z,805.57
2018-02-06T10:10:32.229Z,805.58
2018-02-06T10:11:32.231Z,805.59
2018-02-06T10:12:32.237Z,805.58
2018-02-06T10:13:32.247Z,805.61
2018-02-06T10:14:32.259Z,805.60
2018-02-06T10:15:32.263Z,805.58
2018-02-06T10:16:32.269Z,805.57
2018-02-06T10:17:32.273Z,805.59
2018-02-06T10:18:32.276Z,805.57
2018-02-06T10:19:32.289Z,805.56
2018-02-06T10:20:32.298Z,805.52
2018-02-06T10:21:32.302Z,805.53
2018-02-06T10:22:32.309Z,805.50
2018-02-06T10:23:32.316Z,805.51
2018-02-06T10:24:32.324Z,805.51
2018-02-06T10:25:32.326Z,805.54
2018-02-06T10:26:32.339Z,805.55
2018-02-06T10:27:32.340Z,805.55
2018-02-06T10:28:32.346Z,805.50
2018-02-06T10:29:32.362Z,805.50
2018-02-06T10:30:32.361Z,805.53
2018-02-06T10:31:32.370Z,805.53
2018-02-06T10:32:32.376Z,805.53
2018-02-06T10:33:32.389Z,805.52
2018-02-06T10:34:32.400Z,805.53
2018-02-06T10:35:32.404Z,805.53
2018-02-06T10:36:32.414Z,805.56
2018-02-06T10:37:32.415Z,805.54
2018-02-06T10:38:32.422Z,805.52
2018-02-06T10:39:32.429Z,805.58
2018-02-06T10:40:32.438Z,805.54
2018-02-06T10:41:32.448Z,805.54
2018-02-06T10:42:32.452Z,805.55
2018-02-06T10:43:32.469Z,805.58
2018-02-06T10:44:32.476Z,805.59
2018-02-06T10:45:32.480Z,805.60
2018-02-06T10:46:32.488Z,805.61
2018-02-06T10:47:32.501Z,805.60
2018-02-06T10:48:32.505Z,805.60
2018-02-06T10:49:32.516Z,805.58
2018-02-06T10:50:33.523Z,805.56
2018-02-06T10:51:32.539Z,805.53
2018-02-06T10:52:32.550Z,805.53
2018-02-06T10:53:32.553Z,805.50
2018-02-06T10:54:32.566Z,805.50
2018-02-06T10:55:32.576Z,805.49
2018-02-06T10:56:32.587Z,805.43
2018-02-06T10:57:32.597Z,805.40
2018-02-06T10:58:32.599Z,805.40
2018-02-06T10:59:32.608Z,805.41
2018-02-06T11:00:32.618Z,805.40
2018-02-06T11:01:32.629Z,805.38
2018-02-06T11:02:32.638Z,805.37
2018-02-06T11:03:32.653Z,805.32
2018-02-06T11:04:32.663Z,805.35
2018-02-06T11:05:32.668Z,805.34
2018-02-06T11:06:32.676Z,805.35
2018-02-06T11:07:32.693Z,805.28
2018-02-06T11:08:32.696Z,805.28
2018-02-06T11:09:32.705Z,805.26
2018-02-06T11:10:32.715Z,805.21
2018-02-06T11:11:32.725Z,805.27
2018-02-06T11:12:32.745Z,805.24
2018-02-06T11:13:32.752Z,805.24
2018-02-06T11:14:32.759Z,805.21
2018-02-06T11:15:32.769Z,805.17
2018-02-06T11:16:32.780Z,805.18
2018-02-06T11:17:32.785Z,805.15
2018-02-06T11:18:32.801Z,805.16
2018-02-06T11:19:32.807Z,805.20
2018-02-06T11:20:32.818Z,805.17
2018-02-06T11:21:32.823Z,805.15
2018-02-06T11:22:32.832Z,805.13
2018-02-06T11:23:32.846Z,805.13
2018-02-06T11:24:32.851Z,805.12
2018-02-06T11:25:32.872Z,805.14
2018-02-06T11:26:32.873Z,805.14
2018-02-06T11:27:32.887Z,805.11
2018-02-06T11:28:32.898Z,805.12
2018-02-06T11:29:32.906Z,805.15
2018-02-06T11:30:32.911Z,805.13
2018-02-06T11:31:32.920Z,805.10
2018-02-06T11:32:32.939Z,805.08
2018-02-06T11:33:32.940Z,805.08
2018-02-06T11:34:32.949Z,805.13
2018-02-06T11:35:32.959Z,805.08
2018-02-06T11:36:32.975Z,805.09
2018-02-06T11:37:33.032Z,805.08
2018-02-06T11:38:32.993Z,805.08
2018-02-06T11:39:33.003Z,805.10
2018-02-06T11:40:33.012Z,805.08
2018-02-06T11:41:33.028Z,805.08
2018-02-06T11:42:33.028Z,805.05
2018-02-06T11:43:33.045Z,805.03
2018-02-06T11:44:33.057Z,805.01
2018-02-06T11:45:33.062Z,805.01
2018-02-06T11:46:33.073Z,804.93
2018-02-06T11:47:33.082Z,804.95
2018-02-06T11:48:33.098Z,804.96
2018-02-06T11:49:33.101Z,804.97
2018-02-06T11:50:33.119Z,804.97
2018-02-06T11:51:33.127Z,804.98
2018-02-06T11:52:33.138Z,804.93
2018-02-06T11:53:33.140Z,804.93
2018-02-06T11:54:33.156Z,804.94
2018-02-06T11:55:33.161Z,804.94
2018-02-06T11:56:33.175Z,804.96
2018-02-06T11:57:33.180Z,804.96
2018-02-06T11:58:33.195Z,804.97
2018-02-06T11:59:33.205Z,804.98
2018-02-06T12:00:33.212Z,804.97
2018-02-06T12:01:33.220Z,804.98
2018-02-06T12:02:33.235Z,804.95
2018-02-06T12:03:33.239Z,804.99
2018-02-06T12:04:33.250Z,804.97
2018-02-06T12:05:33.260Z,805.00
2018-02-06T12:06:33.275Z,804.96
2018-02-06T12:07:33.286Z,804.95
2018-02-06T12:08:33.296Z,804.89
2018-02-06T12:09:33.309Z,804.92
2018-02-06T12:10:33.312Z,804.96
2018-02-06T12:11:33.322Z,804.99
2018-02-06T12:12:33.338Z,804.94
2018-02-06T12:13:33.346Z,804.93
2018-02-06T12:14:33.354Z,804.91
2018-02-06T12:15:33.368Z,804.88
2018-02-06T12:16:33.376Z,804.88
2018-02-06T12:17:33.391Z,804.88
2018-02-06T12:18:33.403Z,804.85
2018-02-06T12:19:33.409Z,804.85
2018-02-06T12:20:33.422Z,804.86
2018-02-06T12:21:33.432Z,804.86
2018-02-06T12:22:33.439Z,804.87
2018-02-06T12:23:33.455Z,804.88
2018-02-06T12:24:33.463Z,804.88
2018-02-06T12:25:33.475Z,804.80
2018-02-06T12:26:33.479Z,804.82
2018-02-06T12:27:33.491Z,804.79
2018-02-06T12:28:33.507Z,804.79
2018-02-06T12:29:33.515Z,804.78
2018-02-06T12:30:33.529Z,804.75
2018-02-06T12:31:33.542Z,804.73
2018-02-06T12:32:33.552Z,804.69
2018-02-06T12:33:33.557Z,804.71
2018-02-06T12:34:33.572Z,804.71
2018-02-06T12:35:33.585Z,804.70
2018-02-06T12:36:33.587Z,804.73
2018-02-06T12:37:33.605Z,804.74
2018-02-06T12:38:33.615Z,804.72
2018-02-06T12:39:33.674Z,804.71
2018-02-06T12:40:33.636Z,804.70
2018-02-06T12:41:33.644Z,804.71
2018-02-06T12:42:33.653Z,804.65
2018-02-06T12:43:33.665Z,804.66
2018-02-06T12:44:33.683Z,804.67
2018-02-06T12:45:33.695Z,804.64
2018-02-06T12:46:33.704Z,804.67
2018-02-06T12:47:33.714Z,804.65
2018-02-06T12:48:33.722Z,804.66
2018-02-06T12:49:33.733Z,804.62
2018-02-06T12:50:33.750Z,804.59
2018-02-06T12:51:33.759Z,804.59
2018-02-06T12:52:33.773Z,804.55
2018-02-06T12:53:33.819Z,804.57
2018-02-06T12:54:33.790Z,804.57
2018-02-06T12:55:33.801Z,804.58
2018-02-06T12:56:33.819Z,804.55
2018-02-06T12:57:33.832Z,804.55
2018-02-06T12:58:33.841Z,804.47
2018-02-06T12:59:33.858Z,804.49
2018-02-06T13:00:33.865Z,804.52
2018-02-06T13:01:33.876Z,804.49
2018-02-06T13:02:33.889Z,804.53
2018-02-06T13:03:33.909Z,804.53
2018-02-06T13:04:33.917Z,804.47
2018-02-06T13:05:33.933Z,804.48
2018-02-06T13:06:33.940Z,804.47
2018-02-06T13:07:33.951Z,804.47
2018-02-06T13:08:33.962Z,804.48
2018-02-06T13:09:33.975Z,804.45
2018-02-06T13:10:33.987Z,804.40
2018-02-06T13:11:33.999Z,804.34
2018-02-06T13:12:34.011Z,804.38
2018-02-06T13:13:34.025Z,804.38
2018-02-06T13:14:34.042Z,804.40
2018-02-06T13:15:34.048Z,804.37
2018-02-06T13:16:34.061Z,804.36
2018-02-06T13:17:34.079Z,804.40
2018-02-06T13:18:34.083Z,804.41
2018-02-06T13:19:34.101Z,804.41
2018-02-06T13:20:34.111Z,804.38
2018-02-06T13:21:34.129Z,804.35
2018-02-06T13:22:34.133Z,804.38
2018-02-06T13:23:34.151Z,804.38
2018-02-06T13:24:34.164Z,804.33
2018-02-06T13:25:34.171Z,804.37
2018-02-06T13:26:34.188Z,804.32
2018-02-06T13:27:34.200Z,804.34
2018-02-06T13:28:34.210Z,804.33
2018-02-06T13:29:34.223Z,804.33
2018-02-06T13:30:34.230Z,804.33
2018-02-06T13:31:34.240Z,804.28
2018-02-06T13:32:34.253Z,804.27
2018-02-06T13:33:34.268Z,804.25
2018-02-06T13:34:34.279Z,804.25
2018-02-06T13:35:34.285Z,804.26
2018-02-06T13:36:34.302Z,804.27
2018-02-06T13:37:34.313Z,804.27
2018-02-06T13:38:34.319Z,804.22
2018-02-06T13:39:34.342Z,804.26
2018-02-06T13:40:34.345Z,804.23
2018-02-06T13:41:34.356Z,804.24
2018-02-06T13:42:34.365Z,804.20
2018-02-06T13:43:34.378Z,804.17
2018-02-06T13:44:34.388Z,804.20
2018-02-06T13:45:34.406Z,804.17
2018-02-06T13:46:34.414Z,804.20
2018-02-06T13:47:34.421Z,804.19
2018-02-06T13:48:34.440Z,804.15
2018-02-06T13:49:34.451Z,804.09
2018-02-06T13:50:34.459Z,804.12
2018-02-06T13:51:34.472Z,804.12
2018-02-06T13:52:34.478Z,804.12
2018-02-06T13:53:34.488Z,804.13
2018-02-06T13:54:34.498Z,804.11
2018-02-06T13:55:34.509Z,804.11
2018-02-06T13:56:34.521Z,804.11
2018-02-06T13:57:34.537Z,804.05
2018-02-06T13:58:34.541Z,804.07
2018-02-06T13:59:34.556Z,804.11
2018-02-06T14:00:34.567Z,804.14
2018-02-06T14:01:34.578Z,804.09
2018-02-06T14:02:34.592Z,804.07
2018-02-06T14:03:34.601Z,804.09
2018-02-06T14:04:34.606Z,804.05
2018-02-06T14:05:34.617Z,804.07
2018-02-06T14:06:34.635Z,804.10
2018-02-06T14:07:34.649Z,804.06
2018-02-06T14:08:34.657Z,804.07
2018-02-06T14:09:34.662Z,804.09
2018-02-06T14:10:34.674Z,804.10
2018-02-06T14:11:34.688Z,804.04
2018-02-06T14:12:34.696Z,804.07
2018-02-06T14:13:34.708Z,804.01
2018-02-06T14:14:34.722Z,804.03
2018-02-06T14:15:34.785Z,804.02
2018-02-06T14:16:34.748Z,803.97
2018-02-06T14:17:34.758Z,803.97
2018-02-06T14:18:34.764Z,803.98
2018-02-06T14:19:34.773Z,803.91
2018-02-06T14:20:34.786Z,803.93
2018-02-06T14:21:34.807Z,803.87
2018-02-06T14:22:34.812Z,803.89
2018-02-06T14:23:34.820Z,803.86
2018-02-06T14:24:34.834Z,803.87